Time;durP1;ratioP1;P1;durP2;ratioP2;P2;SDS_P1;SDS_P2;PMS_P1;PMS_P2;Temp;Humidity;BMP_temperature;BMP_pressure;BME280_temperature;BME280_humidity;BME280_pressure;Samples;Min_cycle;Max_cycle;Signal;HPM_P1;HPM_P2
2021/06/24 00:02:07;;;;;;;9.20;2.70;;;16.50;97.40;;;;;;5057821;28;20021;-42
2021/06/24 00:04:32;;;;;;;5.07;2.42;;;16.40;97.40;;;;;;5047329;28;20128;-42
2021/06/24 00:06:58;;;;;;;6.55;2.95;;;16.50;97.50;;;;;;5057699;28;20139;-43
2021/06/24 00:09:23;;;;;;;6.50;2.75;;;16.40;97.50;;;;;;5046720;28;20021;-42
2021/06/24 00:11:49;;;;;;;6.32;2.95;;;16.30;97.60;;;;;;5055998;28;20476;-42
2021/06/24 00:14:15;;;;;;;3.70;2.70;;;16.30;97.60;;;;;;5049284;28;20032;-42
2021/06/24 00:16:40;;;;;;;6.18;2.70;;;16.30;97.60;;;;;;5059132;28;20043;-42
2021/06/24 00:19:06;;;;;;;6.35;2.63;;;16.30;97.60;;;;;;5060875;28;20032;-42
2021/06/24 00:21:31;;;;;;;5.15;2.58;;;16.40;97.60;;;;;;5062309;28;20009;-41
2021/06/24 00:23:57;;;;;;;7.07;2.70;;;16.40;97.60;;;;;;5057625;28;20078;-42
2021/06/24 00:26:22;;;;;;;5.40;2.78;;;16.40;97.60;;;;;;5064761;28;20060;-41
2021/06/24 00:28:48;;;;;;;4.57;2.58;;;16.40;97.60;;;;;;5055341;28;20123;-42
2021/06/24 00:31:13;;;;;;;5.22;2.85;;;16.30;97.50;;;;;;5064392;28;20044;-41
2021/06/24 00:33:39;;;;;;;5.68;2.70;;;16.30;97.60;;;;;;5055255;28;20027;-43
2021/06/24 00:36:05;;;;;;;6.78;2.55;;;16.30;97.60;;;;;;5066075;28;20040;-43
2021/06/24 00:38:31;;;;;;;3.70;2.33;;;16.30;97.60;;;;;;5053314;28;20024;-42
2021/06/24 00:40:57;;;;;;;6.00;2.72;;;16.30;97.60;;;;;;5057963;28;20032;-42
2021/06/24 00:43:25;;;;;;;6.05;2.58;;;16.30;97.60;;;;;;5058163;28;20111;-42
2021/06/24 00:45:51;;;;;;;4.10;2.58;;;16.30;97.70;;;;;;5046124;28;20094;-42
2021/06/24 00:48:16;;;;;;;5.18;2.83;;;16.30;97.70;;;;;;5057934;28;20029;-42
2021/06/24 00:50:44;;;;;;;5.78;2.65;;;16.20;97.70;;;;;;5046280;28;20139;-42
2021/06/24 00:53:11;;;;;;;5.50;2.58;;;16.30;97.70;;;;;;5054845;28;20020;-42
2021/06/24 00:55:41;;;;;;;4.05;2.50;;;16.30;97.70;;;;;;5049948;28;20597;-41
2021/06/24 00:58:22;;;;;;;4.88;2.83;;;16.30;97.70;;;;;;5052824;28;20078;-42
2021/06/24 01:00:50;;;;;;;6.80;3.20;;;16.20;97.70;;;;;;5048916;28;20033;-42
2021/06/24 01:03:16;;;;;;;5.05;2.80;;;16.20;97.70;;;;;;5052759;28;20031;-42
2021/06/24 01:05:43;;;;;;;4.82;2.47;;;16.20;97.80;;;;;;5050821;28;20041;-41
2021/06/24 01:08:10;;;;;;;4.45;2.80;;;16.20;97.80;;;;;;5050181;28;20043;-42
2021/06/24 01:10:37;;;;;;;4.75;2.90;;;16.20;97.80;;;;;;5053587;28;20160;-42
2021/06/24 01:13:05;;;;;;;4.60;2.90;;;16.20;97.80;;;;;;5047868;28;20126;-42
2021/06/24 01:15:30;;;;;;;5.57;3.28;;;16.20;97.80;;;;;;5066319;28;20430;-41
2021/06/24 01:17:59;;;;;;;6.43;3.17;;;16.20;97.70;;;;;;5050640;28;20021;-42
2021/06/24 01:20:35;;;;;;;3.28;2.40;;;16.20;97.70;;;;;;5060878;28;20495;-42
2021/06/24 01:23:03;;;;;;;4.18;2.80;;;16.20;97.70;;;;;;5050553;28;20020;-41
2021/06/24 01:25:29;;;;;;;3.67;2.55;;;16.20;97.80;;;;;;5060253;28;20518;-42
2021/06/24 01:27:59;;;;;;;4.95;3.03;;;16.10;97.80;;;;;;5049892;28;20029;-42
2021/06/24 01:30:27;;;;;;;4.00;2.88;;;16.10;97.90;;;;;;5057014;28;20098;-41
2021/06/24 01:32:53;;;;;;;6.63;3.40;;;16.10;98.00;;;;;;5048790;28;20105;-41
2021/06/24 01:35:23;;;;;;;5.72;3.40;;;16.00;98.10;;;;;;5062160;28;20048;-42
2021/06/24 01:37:54;;;;;;;5.82;3.30;;;15.90;98.20;;;;;;5048883;28;20502;-42
2021/06/24 01:40:19;;;;;;;8.15;3.20;;;15.90;98.20;;;;;;5060916;28;20039;-41
2021/06/24 01:42:45;;;;;;;4.85;2.80;;;15.90;98.50;;;;;;5049282;28;20025;-42
2021/06/24 01:45:11;;;;;;;4.32;3.00;;;15.90;98.20;;;;;;5060358;28;20047;-41
2021/06/24 01:47:36;;;;;;;5.80;3.10;;;15.90;98.20;;;;;;5050062;28;20028;-41
2021/06/24 01:50:10;;;;;;;4.90;2.90;;;15.90;98.20;;;;;;5057439;28;20008;-42
2021/06/24 01:52:36;;;;;;;5.82;2.85;;;15.90;98.30;;;;;;5052191;28;20029;-42
2021/06/24 01:55:02;;;;;;;5.63;3.20;;;15.80;98.30;;;;;;5055405;28;20078;-41
2021/06/24 01:57:28;;;;;;;6.07;3.42;;;15.80;98.30;;;;;;5054215;28;20039;-42
2021/06/24 01:59:53;;;;;;;5.43;2.70;;;15.90;98.30;;;;;;5053828;28;20143;-42
2021/06/24 02:02:19;;;;;;;5.95;3.15;;;15.80;98.30;;;;;;5056374;28;20025;-42
2021/06/24 02:04:44;;;;;;;4.53;2.60;;;15.80;98.30;;;;;;5050680;28;20475;-42
2021/06/24 02:07:10;;;;;;;3.53;3.10;;;15.80;98.40;;;;;;5058824;28;20056;-42
2021/06/24 02:09:35;;;;;;;10.20;3.58;;;15.80;98.40;;;;;;5049550;28;20123;-42
2021/06/24 02:12:01;;;;;;;5.70;2.92;;;15.80;98.40;;;;;;5059284;28;20099;-42
2021/06/24 02:14:28;;;;;;;3.25;2.80;;;15.70;98.40;;;;;;5049185;28;20025;-42
2021/06/24 02:16:54;;;;;;;4.13;3.00;;;15.80;98.50;;;;;;5058916;28;20044;-42
2021/06/24 02:19:19;;;;;;;4.50;2.95;;;15.80;98.40;;;;;;5048614;28;20067;-41
2021/06/24 02:21:45;;;;;;;5.80;2.95;;;15.80;98.50;;;;;;5060047;28;20025;-41
2021/06/24 02:24:10;;;;;;;5.63;3.28;;;15.80;98.50;;;;;;5048547;28;20036;-42
2021/06/24 02:26:37;;;;;;;4.45;3.22;;;15.80;98.50;;;;;;5059749;28;20064;-42
2021/06/24 02:29:03;;;;;;;6.82;3.05;;;15.70;98.50;;;;;;5047871;28;20043;-42
2021/06/24 02:31:29;;;;;;;4.72;3.03;;;15.70;98.50;;;;;;5057887;28;20035;-42
2021/06/24 02:33:55;;;;;;;4.88;3.30;;;15.70;98.50;;;;;;5050812;28;20031;-42
2021/06/24 02:36:21;;;;;;;5.07;3.40;;;15.70;98.50;;;;;;5054648;28;20465;-42
2021/06/24 02:38:46;;;;;;;5.40;3.67;;;15.70;98.80;;;;;;5053688;28;20020;-42
2021/06/24 02:41:12;;;;;;;4.70;3.33;;;15.70;98.60;;;;;;5051982;28;20025;-43
2021/06/24 02:43:37;;;;;;;4.15;2.97;;;15.70;98.60;;;;;;5055985;28;20021;-45
2021/06/24 02:46:06;;;;;;;4.75;3.70;;;15.60;98.60;;;;;;5049343;28;20044;-43
2021/06/24 02:48:31;;;;;;;9.23;4.20;;;15.60;98.70;;;;;;5058726;28;20040;-43
2021/06/24 02:50:57;;;;;;;7.60;3.75;;;15.60;98.70;;;;;;5048556;28;20020;-43
2021/06/24 02:53:22;;;;;;;4.90;3.30;;;15.50;98.70;;;;;;5059088;28;20089;-42
2021/06/24 02:55:51;;;;;;;6.93;3.40;;;15.50;98.70;;;;;;5048197;28;20031;-42
2021/06/24 02:58:16;;;;;;;3.67;2.97;;;15.60;98.80;;;;;;5058556;28;20059;-42
2021/06/24 03:00:41;;;;;;;5.40;3.80;;;15.60;98.80;;;;;;5047635;28;20067;-44
2021/06/24 03:03:07;;;;;;;5.82;3.30;;;15.60;98.80;;;;;;5060145;28;20059;-42
2021/06/24 03:05:32;;;;;;;5.38;3.25;;;15.50;98.70;;;;;;5047012;28;20053;-42
2021/06/24 03:07:58;;;;;;;6.05;3.38;;;15.50;98.70;;;;;;5058571;28;20143;-42
2021/06/24 03:10:24;;;;;;;5.43;3.60;;;15.50;98.70;;;;;;5048573;28;20060;-42
2021/06/24 03:12:50;;;;;;;6.18;3.88;;;15.50;98.90;;;;;;5055890;28;20021;-42
2021/06/24 03:15:16;;;;;;;5.78;3.80;;;15.40;98.80;;;;;;5056491;28;20100;-42
2021/06/24 03:17:42;;;;;;;5.03;3.35;;;15.40;98.80;;;;;;5060454;28;20390;-42
2021/06/24 03:20:09;;;;;;;6.03;3.67;;;15.40;98.90;;;;;;5061359;28;20052;-42
2021/06/24 03:22:35;;;;;;;4.30;3.35;;;15.40;99.00;;;;;;5062906;28;20475;-42
2021/06/24 03:25:02;;;;;;;3.63;3.30;;;15.40;99.00;;;;;;5058024;28;20075;-42
2021/06/24 03:27:28;;;;;;;4.22;3.40;;;15.40;99.00;;;;;;5065739;28;20122;-42
2021/06/24 03:29:54;;;;;;;4.78;3.47;;;15.40;99.00;;;;;;5056296;28;20013;-43
2021/06/24 03:32:19;;;;;;;4.78;3.20;;;15.40;99.00;;;;;;5065634;28;20033;-42
2021/06/24 03:34:45;;;;;;;6.57;3.50;;;15.40;99.00;;;;;;5056332;28;20456;-42
2021/06/24 03:37:10;;;;;;;5.38;3.58;;;15.30;99.00;;;;;;5066188;28;20032;-43
2021/06/24 03:39:37;;;;;;;5.40;3.33;;;15.30;99.00;;;;;;5054841;28;20012;-42
2021/06/24 03:42:03;;;;;;;4.85;3.72;;;15.30;99.10;;;;;;5066679;28;20032;-42
2021/06/24 03:44:28;;;;;;;6.15;3.17;;;15.30;99.20;;;;;;5054729;28;20033;-42
2021/06/24 03:46:54;;;;;;;6.47;3.38;;;15.30;99.20;;;;;;5066323;28;20048;-42
2021/06/24 03:49:19;;;;;;;5.30;3.13;;;15.30;99.20;;;;;;5055506;28;20128;-42
2021/06/24 03:51:45;;;;;;;6.57;3.60;;;15.30;99.20;;;;;;5065790;28;20297;-42
2021/06/24 03:54:13;;;;;;;5.57;3.50;;;15.30;99.20;;;;;;5057270;28;20107;-42
2021/06/24 03:56:51;;;;;;;5.32;3.40;;;15.30;99.20;;;;;;5063722;28;20020;-42
2021/06/24 03:59:16;;;;;;;6.03;3.47;;;15.30;99.20;;;;;;5058283;28;20051;-42
2021/06/24 04:01:42;;;;;;;7.78;3.60;;;15.30;99.20;;;;;;5061905;28;20024;-42
2021/06/24 04:04:10;;;;;;;7.80;3.40;;;15.40;99.20;;;;;;5060560;28;20100;-42
2021/06/24 04:06:36;;;;;;;7.20;3.13;;;15.40;99.20;;;;;;5060508;28;20098;-42
2021/06/24 04:09:02;;;;;;;6.18;3.70;;;15.30;99.20;;;;;;5062114;28;20044;-42
2021/06/24 04:11:28;;;;;;;9.82;3.78;;;15.40;99.20;;;;;;5058472;28;20025;-43
2021/06/24 04:13:56;;;;;;;10.27;3.90;;;15.40;99.10;;;;;;5064867;28;20114;-42
2021/06/24 04:16:22;;;;;;;5.22;3.35;;;15.40;99.10;;;;;;5061121;28;20048;-41
2021/06/24 04:18:47;;;;;;;5.05;3.15;;;15.40;99.10;;;;;;5065404;28;20027;-42
2021/06/24 04:21:13;;;;;;;7.00;3.35;;;15.40;99.10;;;;;;5054787;28;20499;-42
2021/06/24 04:23:38;;;;;;;6.10;3.33;;;15.40;99.10;;;;;;5066545;28;20021;-41
2021/06/24 04:26:04;;;;;;;7.15;3.75;;;15.40;99.10;;;;;;5058828;28;20029;-41
2021/06/24 04:28:29;;;;;;;4.53;3.47;;;15.40;99.10;;;;;;5046230;28;20554;-42
2021/06/24 04:30:55;;;;;;;6.72;3.80;;;15.30;99.10;;;;;;5052918;28;20505;-41
2021/06/24 04:33:21;;;;;;;6.00;3.50;;;15.30;99.10;;;;;;5066839;28;20024;-43
2021/06/24 04:35:46;;;;;;;7.60;3.53;;;15.30;99.20;;;;;;5055295;28;20029;-43
2021/06/24 04:38:13;;;;;;;4.57;3.25;;;15.30;99.20;;;;;;5064802;28;20426;-42
2021/06/24 04:40:39;;;;;;;4.78;3.30;;;15.30;99.20;;;;;;5057872;28;20487;-41
2021/06/24 04:43:08;;;;;;;5.57;3.42;;;15.30;99.30;;;;;;5061863;28;20104;-42
2021/06/24 04:45:36;;;;;;;4.35;2.90;;;15.30;99.30;;;;;;5060712;28;20048;-42
2021/06/24 04:48:01;;;;;;;5.95;3.60;;;15.30;99.40;;;;;;5059939;28;20056;-43
2021/06/24 04:50:27;;;;;;;10.10;3.95;;;15.30;99.30;;;;;;5064833;28;20063;-41
2021/06/24 04:52:53;;;;;;;4.68;3.25;;;15.30;99.40;;;;;;5060980;28;20048;-41
2021/06/24 04:55:19;;;;;;;9.77;3.47;;;15.30;99.40;;;;;;5069217;28;20025;-42
2021/06/24 04:57:45;;;;;;;6.25;3.50;;;15.30;99.30;;;;;;5058559;28;20102;-42
2021/06/24 05:00:11;;;;;;;7.30;4.35;;;15.30;99.30;;;;;;5068976;28;20387;-42
2021/06/24 05:02:40;;;;;;;5.68;3.88;;;15.20;99.30;;;;;;5056862;28;20063;-41
2021/06/24 05:05:08;;;;;;;6.53;4.05;;;15.30;99.40;;;;;;5049167;28;20029;-42
2021/06/24 05:07:34;;;;;;;6.82;4.07;;;15.30;99.40;;;;;;5057477;28;20044;-42
2021/06/24 05:10:03;;;;;;;6.60;4.00;;;15.30;99.40;;;;;;5069675;28;20033;-42
2021/06/24 05:12:31;;;;;;;6.43;3.10;;;15.30;99.40;;;;;;5056756;28;20075;-42
2021/06/24 05:14:57;;;;;;;4.15;3.20;;;15.30;99.40;;;;;;5067565;28;20107;-43
2021/06/24 05:17:22;;;;;;;4.03;3.45;;;15.30;99.40;;;;;;5052571;28;20107;-42
2021/06/24 05:19:48;;;;;;;5.60;3.20;;;15.40;99.40;;;;;;5069067;28;20069;-41
2021/06/24 05:22:16;;;;;;;5.85;4.05;;;15.40;99.30;;;;;;5060280;28;20021;-42
2021/06/24 05:24:42;;;;;;;5.32;3.33;;;15.50;99.30;;;;;;5066847;28;20016;-42
2021/06/24 05:27:08;;;;;;;4.90;3.08;;;15.50;99.20;;;;;;5061497;28;20412;-41
2021/06/24 05:29:33;;;;;;;9.13;3.90;;;15.60;99.20;;;;;;5064920;28;20358;-42
2021/06/24 05:31:59;;;;;;;5.10;3.65;;;15.50;99.20;;;;;;5064020;28;20802;-43
2021/06/24 05:34:24;;;;;;;5.57;3.10;;;15.60;99.30;;;;;;5062237;28;20546;-41
2021/06/24 05:36:50;;;;;;;4.35;3.08;;;15.60;99.30;;;;;;5050264;28;20028;-42
2021/06/24 05:39:15;;;;;;;7.05;3.80;;;15.70;99.20;;;;;;5058915;28;20025;-42
2021/06/24 05:41:41;;;;;;;4.40;3.33;;;15.80;99.20;;;;;;5067740;28;20028;-42
2021/06/24 05:44:07;;;;;;;4.85;3.28;;;15.80;99.10;;;;;;5057999;28;20028;-42
2021/06/24 05:46:33;;;;;;;5.53;3.70;;;15.90;99.10;;;;;;5068388;28;20115;-42
2021/06/24 05:48:58;;;;;;;5.20;3.70;;;16.00;99.10;;;;;;5057061;28;20070;-42
2021/06/24 05:51:24;;;;;;;6.38;3.80;;;16.00;99.00;;;;;;5069374;28;20082;-42
2021/06/24 05:53:50;;;;;;;5.60;3.15;;;16.00;99.00;;;;;;5063532;28;20383;-42
2021/06/24 05:56:17;;;;;;;5.97;3.40;;;16.10;99.00;;;;;;5049144;28;20033;-43
2021/06/24 05:58:42;;;;;;;9.68;3.78;;;16.10;98.90;;;;;;5057082;28;20095;-42
2021/06/24 06:01:08;;;;;;;4.38;3.28;;;16.20;98.80;;;;;;5047589;28;20114;-44
2021/06/24 06:03:33;;;;;;;5.25;3.67;;;16.20;98.80;;;;;;5057533;28;20129;-42
2021/06/24 06:05:59;;;;;;;5.53;3.00;;;16.20;98.80;;;;;;5051317;28;20037;-42
2021/06/24 06:08:27;;;;;;;5.13;3.22;;;16.20;98.70;;;;;;5054564;28;20071;-42
2021/06/24 06:10:53;;;;;;;6.07;3.30;;;16.30;98.70;;;;;;5053566;28;20028;-41
2021/06/24 06:13:19;;;;;;;6.78;3.42;;;16.40;98.70;;;;;;5051488;28;20067;-43
2021/06/24 06:15:49;;;;;;;6.95;3.67;;;16.40;98.70;;;;;;5063975;28;20124;-42
2021/06/24 06:18:18;;;;;;;6.57;4.05;;;16.50;98.60;;;;;;5064711;28;20039;-43
2021/06/24 06:20:46;;;;;;;6.32;3.80;;;16.60;98.50;;;;;;5058206;28;20097;-42
2021/06/24 06:23:18;;;;;;;5.65;3.90;;;16.60;98.40;;;;;;5067071;28;20020;-42
2021/06/24 06:25:46;;;;;;;7.10;4.35;;;16.60;98.30;;;;;;5046416;28;20090;-43
2021/06/24 06:28:14;;;;;;;5.15;3.10;;;16.60;98.20;;;;;;5049194;28;20029;-43
2021/06/24 06:30:40;;;;;;;6.40;3.63;;;16.70;98.20;;;;;;5055738;28;20040;-42
2021/06/24 06:33:06;;;;;;;6.70;3.60;;;16.70;98.10;;;;;;5048861;28;20098;-43
2021/06/24 06:35:32;;;;;;;4.85;3.28;;;16.70;98.00;;;;;;5051525;28;20448;-43
2021/06/24 06:37:58;;;;;;;5.07;3.00;;;16.80;97.90;;;;;;5048212;28;20708;-43
2021/06/24 06:40:24;;;;;;;6.65;3.95;;;16.80;97.90;;;;;;5045827;28;20116;-43
2021/06/24 06:42:49;;;;;;;5.53;2.97;;;16.90;97.80;;;;;;5047712;28;20451;-42
2021/06/24 06:45:18;;;;;;;2.83;2.55;;;17.00;97.70;;;;;;5050439;28;20523;-42
2021/06/24 06:47:45;;;;;;;4.78;3.22;;;17.10;97.60;;;;;;5053529;28;20056;-42
2021/06/24 06:50:12;;;;;;;5.28;3.60;;;17.20;97.30;;;;;;5051222;28;20021;-42
2021/06/24 06:52:37;;;;;;;4.25;3.08;;;17.20;97.00;;;;;;5051146;28;20028;-43
2021/06/24 06:55:03;;;;;;;6.35;3.28;;;17.20;97.00;;;;;;5054705;28;20012;-43
2021/06/24 06:57:31;;;;;;;6.43;3.35;;;17.20;97.00;;;;;;5052984;28;20032;-42
2021/06/24 06:59:57;;;;;;;6.78;3.35;;;17.30;96.90;;;;;;5052985;28;20470;-41
2021/06/24 07:02:22;;;;;;;4.57;3.05;;;17.40;96.70;;;;;;5056005;28;20037;-44
2021/06/24 07:04:49;;;;;;;3.70;2.90;;;17.40;96.70;;;;;;5049588;28;20017;-42
2021/06/24 07:07:15;;;;;;;5.85;2.80;;;17.40;96.50;;;;;;5057871;28;20021;-43
2021/06/24 07:09:42;;;;;;;5.00;3.05;;;17.50;96.30;;;;;;5048981;28;20512;-42
2021/06/24 07:12:09;;;;;;;6.30;3.55;;;17.50;96.20;;;;;;5057427;28;20025;-43
2021/06/24 07:14:34;;;;;;;5.30;2.95;;;17.50;96.10;;;;;;5049445;28;20051;-43
2021/06/24 07:17:00;;;;;;;6.38;3.00;;;17.60;96.00;;;;;;5055562;28;20033;-42
2021/06/24 07:19:26;;;;;;;4.97;3.08;;;17.70;95.80;;;;;;5046293;28;20033;-42
2021/06/24 07:21:54;;;;;;;4.85;2.88;;;17.70;95.80;;;;;;5060194;28;20353;-41
2021/06/24 07:24:21;;;;;;;6.28;3.08;;;17.80;95.70;;;;;;5047169;28;20036;-41
2021/06/24 07:26:47;;;;;;;4.38;2.60;;;17.90;95.60;;;;;;5050921;28;20090;-41
2021/06/24 07:29:13;;;;;;;4.32;2.60;;;17.90;95.60;;;;;;5067535;28;20016;-42
2021/06/24 07:31:38;;;;;;;6.03;3.47;;;18.00;95.50;;;;;;5056297;28;20025;-42
2021/06/24 07:34:04;;;;;;;5.43;3.15;;;18.10;95.40;;;;;;5064631;28;20036;-42
2021/06/24 07:36:30;;;;;;;3.70;2.33;;;18.20;95.40;;;;;;5059465;28;20033;-42
2021/06/24 07:38:58;;;;;;;7.25;2.60;;;18.30;95.40;;;;;;5061809;28;20021;-42
2021/06/24 07:41:24;;;;;;;5.55;3.05;;;18.40;95.20;;;;;;5061432;28;20060;-42
2021/06/24 07:43:53;;;;;;;5.18;2.80;;;18.40;94.90;;;;;;5060157;28;20056;-42
2021/06/24 07:46:19;;;;;;;5.82;2.85;;;18.50;94.80;;;;;;5061364;28;20025;-43
2021/06/24 07:48:47;;;;;;;3.63;2.50;;;18.40;94.50;;;;;;5055455;28;20384;-42
2021/06/24 07:51:13;;;;;;;4.55;2.53;;;18.50;94.60;;;;;;5048264;28;20053;-43
2021/06/24 07:53:42;;;;;;;4.25;2.63;;;18.60;94.60;;;;;;5057821;28;20143;-42
2021/06/24 07:56:13;;;;;;;6.22;2.70;;;18.70;94.40;;;;;;5047697;28;20416;-42
2021/06/24 07:58:39;;;;;;;4.05;2.88;;;18.80;94.00;;;;;;5058255;28;20042;-42
2021/06/24 08:01:06;;;;;;;3.75;2.70;;;18.70;93.50;;;;;;5047435;28;20032;-42
2021/06/24 08:03:33;;;;;;;2.75;2.22;;;18.80;93.70;;;;;;5057419;28;20028;-44
2021/06/24 08:06:02;;;;;;;4.68;2.75;;;18.70;93.60;;;;;;5066421;28;20086;-42
2021/06/24 08:08:27;;;;;;;4.25;2.47;;;18.80;93.40;;;;;;5053647;28;20049;-42
2021/06/24 08:10:55;;;;;;;3.53;2.47;;;18.80;93.50;;;;;;5067568;28;20032;-42
2021/06/24 08:13:22;;;;;;;4.95;2.70;;;18.70;93.20;;;;;;5057333;28;20107;-42
2021/06/24 08:15:47;;;;;;;4.97;2.95;;;18.70;93.30;;;;;;5046341;28;20435;-42
2021/06/24 08:18:13;;;;;;;4.13;2.65;;;18.70;93.20;;;;;;5057184;28;20563;-42
2021/06/24 08:20:39;;;;;;;4.53;2.70;;;18.70;93.10;;;;;;5047356;28;20039;-42
2021/06/24 08:23:07;;;;;;;3.35;2.88;;;18.70;93.20;;;;;;5054127;28;20039;-42
2021/06/24 08:25:33;;;;;;;5.25;3.00;;;18.70;93.30;;;;;;5055366;28;20052;-42
2021/06/24 08:27:58;;;;;;;3.53;2.53;;;18.70;93.30;;;;;;5055943;28;20023;-42
2021/06/24 08:30:24;;;;;;;5.32;3.05;;;18.70;93.40;;;;;;5058016;28;20070;-42
2021/06/24 08:32:49;;;;;;;4.88;3.08;;;18.70;93.20;;;;;;5053816;28;20487;-42
2021/06/24 08:35:16;;;;;;;3.92;2.63;;;18.70;93.20;;;;;;5059836;28;20025;-42
2021/06/24 08:37:43;;;;;;;4.70;2.70;;;18.70;93.20;;;;;;5052189;28;20393;-42
2021/06/24 08:40:10;;;;;;;5.93;2.80;;;18.70;93.10;;;;;;5062562;28;20021;-42
2021/06/24 08:42:37;;;;;;;3.63;2.58;;;18.60;93.00;;;;;;5051637;28;20033;-43
2021/06/24 08:45:05;;;;;;;3.38;2.30;;;18.60;93.10;;;;;;5061017;28;20013;-43
2021/06/24 08:47:32;;;;;;;4.68;2.30;;;18.60;93.30;;;;;;5050882;28;20086;-41
2021/06/24 08:49:59;;;;;;;4.25;2.50;;;18.60;93.40;;;;;;5061918;28;20067;-42
2021/06/24 08:52:26;;;;;;;4.50;2.63;;;18.60;93.40;;;;;;5050755;28;20102;-42
2021/06/24 08:54:52;;;;;;;4.60;2.95;;;18.60;93.30;;;;;;5062757;28;20116;-42
2021/06/24 08:57:19;;;;;;;4.93;3.10;;;18.60;93.20;;;;;;5049817;28;20108;-41
2021/06/24 08:59:44;;;;;;;7.32;3.17;;;18.60;93.10;;;;;;5059785;28;20071;-43
2021/06/24 09:02:13;;;;;;;5.22;3.47;;;18.50;93.20;;;;;;5047941;28;20503;-43
2021/06/24 09:04:44;;;;;;;5.13;2.92;;;18.50;93.30;;;;;;5058993;28;20071;-42
2021/06/24 09:07:20;;;;;;;6.00;3.85;;;18.40;93.30;;;;;;5052250;28;20060;-42
2021/06/24 09:09:50;;;;;;;4.57;3.30;;;18.40;93.30;;;;;;5058367;28;20057;-42
2021/06/24 09:12:16;;;;;;;4.18;2.92;;;18.40;93.50;;;;;;5051529;28;20025;-41
2021/06/24 09:14:47;;;;;;;6.20;3.30;;;18.30;93.60;;;;;;5050502;28;20039;-42
2021/06/24 09:17:38;;;;;;;4.70;3.00;;;18.30;93.60;;;;;;5051599;28;20036;-42
2021/06/24 09:20:27;;;;;;;4.78;3.33;;;18.30;93.60;;;;;;5057796;28;20019;-42
2021/06/24 09:23:09;;;;;;;5.57;3.15;;;18.20;93.60;;;;;;5050157;28;20488;-42
2021/06/24 09:25:43;;;;;;;5.72;3.53;;;18.20;93.60;;;;;;5060484;28;20036;-45
2021/06/24 09:28:10;;;;;;;5.20;3.70;;;18.20;93.50;;;;;;5049469;28;20040;-42
2021/06/24 09:30:38;;;;;;;6.05;3.25;;;18.20;93.60;;;;;;5059605;28;20028;-42
2021/06/24 09:33:21;;;;;;;5.90;3.70;;;18.20;93.60;;;;;;5050470;28;20055;-41
2021/06/24 09:35:57;;;;;;;4.82;3.30;;;18.20;93.60;;;;;;5052232;28;20195;-42
2021/06/24 09:38:23;;;;;;;3.75;2.92;;;18.30;93.70;;;;;;5068831;28;20029;-44
2021/06/24 09:40:56;;;;;;;3.78;3.22;;;18.30;93.80;;;;;;5060108;28;20020;-44
2021/06/24 09:43:27;;;;;;;3.70;3.00;;;18.40;93.80;;;;;;5050413;28;20025;-43
2021/06/24 09:46:18;;;;;;;8.10;3.95;;;18.40;93.80;;;;;;5051455;28;20025;-43
2021/06/24 09:48:52;;;;;;;5.47;3.70;;;18.40;93.60;;;;;;5068421;28;20534;-44
2021/06/24 09:51:20;;;;;;;6.90;3.72;;;18.40;93.60;;;;;;5058716;28;20036;-43
2021/06/24 09:54:10;;;;;;;4.68;3.50;;;18.40;93.70;;;;;;5063077;28;20033;-43
2021/06/24 09:56:43;;;;;;;4.88;3.88;;;18.30;93.70;;;;;;5051573;28;20029;-43
2021/06/24 09:59:09;;;;;;;3.85;3.47;;;18.30;93.80;;;;;;5068572;28;20417;-43
2021/06/24 10:01:46;;;;;;;4.88;3.63;;;18.40;93.80;;;;;;5058598;28;20101;-41
2021/06/24 10:04:31;;;;;;;5.72;3.50;;;18.40;93.90;;;;;;5067807;28;20017;-43
2021/06/24 10:06:59;;;;;;;6.88;3.67;;;18.40;94.00;;;;;;5045214;28;20045;-43
2021/06/24 10:09:25;;;;;;;4.53;4.00;;;18.50;94.00;;;;;;5042435;28;20045;-43
2021/06/24 10:11:51;;;;;;;4.18;3.78;;;18.50;93.90;;;;;;5044526;28;20171;-43
2021/06/24 10:14:19;;;;;;;4.05;3.45;;;18.70;94.00;;;;;;5064907;28;20029;-43
2021/06/24 10:16:52;;;;;;;5.25;3.45;;;18.80;93.90;;;;;;5050635;28;20028;-42
2021/06/24 10:19:26;;;;;;;4.10;3.60;;;18.80;93.80;;;;;;5048077;28;20029;-43
2021/06/24 10:22:16;;;;;;;5.05;3.92;;;18.90;93.80;;;;;;5045374;28;20140;-43
2021/06/24 10:25:04;;;;;;;4.53;3.50;;;19.00;93.70;;;;;;5062263;28;20040;-43
2021/06/24 10:27:35;;;;;;;6.05;4.07;;;19.00;93.60;;;;;;5057107;28;20048;-43
2021/06/24 10:30:13;;;;;;;4.68;3.50;;;19.00;93.50;;;;;;5066635;28;20028;-43
2021/06/24 10:32:40;;;;;;;4.35;3.80;;;19.00;93.60;;;;;;5048420;28;20206;-44
2021/06/24 10:35:22;;;;;;;4.97;3.70;;;19.00;93.70;;;;;;5064499;28;20110;-42
2021/06/24 10:37:49;;;;;;;4.75;3.70;;;19.00;93.70;;;;;;5058389;28;20051;-43
2021/06/24 10:40:24;;;;;;;4.53;4.03;;;19.00;93.70;;;;;;5065731;28;20416;-42
2021/06/24 10:42:53;;;;;;;5.03;4.10;;;19.10;93.60;;;;;;5058917;28;20109;-43
2021/06/24 10:45:26;;;;;;;5.20;3.92;;;19.10;93.50;;;;;;5064762;28;20028;-42
2021/06/24 10:47:54;;;;;;;6.05;3.50;;;19.20;93.50;;;;;;5060421;28;20060;-42
2021/06/24 10:50:26;;;;;;;5.57;3.20;;;19.30;93.60;;;;;;5063201;28;20352;-42
2021/06/24 10:52:52;;;;;;;3.83;3.17;;;19.40;93.60;;;;;;5061223;28;20024;-42
2021/06/24 10:55:39;;;;;;;5.53;4.18;;;19.50;93.70;;;;;;5061504;28;20344;-41
2021/06/24 10:58:10;;;;;;;7.10;4.03;;;19.60;93.30;;;;;;5061038;28;20077;-41
2021/06/24 11:00:39;;;;;;;6.87;4.43;;;19.70;93.10;;;;;;5062813;28;20040;-42
2021/06/24 11:03:09;;;;;;;4.75;3.38;;;19.80;93.00;;;;;;5062410;28;20028;-41
2021/06/24 11:05:42;;;;;;;4.57;4.13;;;19.90;93.00;;;;;;5044546;28;20080;-42
2021/06/24 11:08:07;;;;;;;;;;;20.00;93.00;;;;;;5045604;28;20029;-41
2021/06/24 11:10:33;;;;;;;6.25;3.80;;;20.10;93.00;;;;;;5040793;28;19958;-42
2021/06/24 11:13:04;;;;;;;5.90;4.35;;;20.10;92.90;;;;;;5041945;28;20060;-42
2021/06/24 11:15:49;;;;;;;4.50;3.47;;;20.20;92.80;;;;;;5042461;28;20020;-41
2021/06/24 11:18:33;;;;;;;7.22;4.55;;;20.30;92.70;;;;;;5048632;28;20275;-42
2021/06/24 11:21:01;;;;;;;4.55;3.85;;;20.30;92.60;;;;;;5049863;28;20031;-42
2021/06/24 11:23:32;;;;;;;4.25;3.72;;;20.30;92.50;;;;;;5049320;28;20041;-42
2021/06/24 11:26:14;;;;;;;4.72;4.22;;;20.30;92.60;;;;;;5056445;28;20033;-42
2021/06/24 11:28:49;;;;;;;4.35;3.83;;;20.30;92.50;;;;;;5049686;28;20017;-41
2021/06/24 11:31:17;;;;;;;4.55;4.00;;;20.30;92.50;;;;;;5055304;28;20017;-42
2021/06/24 11:37:00;;;;;;;5.38;3.70;;;20.40;92.70;;;;;;5053260;28;20130;-42
2021/06/24 11:39:27;;;;;;;4.32;3.50;;;20.40;92.70;;;;;;5053078;28;20032;-42
2021/06/24 11:41:56;;;;;;;3.50;3.20;;;20.40;92.60;;;;;;5052938;28;20029;-42
2021/06/24 11:44:34;;;;;;;6.43;3.40;;;20.40;92.70;;;;;;5050546;28;20676;-42
2021/06/24 11:47:10;;;;;;;4.82;4.00;;;20.40;92.80;;;;;;5053100;28;20033;-42
2021/06/24 12:04:05;;;;;;;5.90;4.25;;;20.10;92.90;;;;;;5046744;28;19912;-42
2021/06/24 12:06:56;;;;;;;5.70;4.10;;;20.10;92.80;;;;;;5058484;28;20485;-42
2021/06/24 12:09:42;;;;;;;6.03;4.40;;;20.20;92.90;;;;;;5047300;28;20504;-42
2021/06/24 12:12:32;;;;;;;3.75;3.45;;;20.20;92.90;;;;;;5056037;28;20071;-42
2021/06/24 12:15:02;;;;;;;6.57;5.00;;;20.20;92.90;;;;;;5047592;28;20769;-42
2021/06/24 12:17:30;;;;;;;4.43;4.03;;;20.20;92.70;;;;;;5040925;28;20033;-42
2021/06/24 12:19:55;;;;;;;5.43;3.97;;;20.30;92.70;;;;;;5040910;28;20568;-42
2021/06/24 12:22:34;;;;;;;7.13;4.40;;;20.30;92.80;;;;;;5057555;28;20119;-43
2021/06/24 12:25:00;;;;;;;6.85;4.53;;;20.30;92.70;;;;;;5047855;28;20041;-42
2021/06/24 12:27:38;;;;;;;4.88;4.10;;;20.40;92.70;;;;;;5058019;28;20040;-42
2021/06/24 12:30:16;;;;;;;3.90;3.60;;;20.40;93.00;;;;;;5047079;28;20028;-43
2021/06/24 12:32:56;;;;;;;4.30;3.92;;;20.40;92.80;;;;;;5055133;28;20047;-43
2021/06/24 12:35:27;;;;;;;7.50;4.88;;;20.50;92.70;;;;;;5047054;28;20385;-42
2021/06/24 12:37:54;;;;;;;4.93;3.97;;;20.50;92.60;;;;;;5057655;28;20079;-42
2021/06/24 12:40:21;;;;;;;4.28;3.30;;;20.60;92.70;;;;;;5047027;28;20406;-42
2021/06/24 12:42:48;;;;;;;4.82;3.78;;;20.80;92.80;;;;;;5052475;28;20060;-41
2021/06/24 12:45:16;;;;;;;3.90;3.28;;;21.10;92.90;;;;;;5066884;28;20089;-42
2021/06/24 12:47:44;;;;;;;5.22;4.00;;;21.40;92.70;;;;;;5052885;28;20052;-42
2021/06/24 12:50:13;;;;;;;7.05;5.20;;;21.60;92.40;;;;;;5066351;28;20039;-42
2021/06/24 12:53:07;;;;;;;6.30;5.07;;;21.80;91.90;;;;;;5054297;28;20037;-42
2021/06/24 12:55:39;;;;;;;5.30;4.80;;;21.90;91.50;;;;;;5024959;28;20112;-41
2021/06/24 12:58:08;;;;;;;7.40;5.20;;;22.00;91.30;;;;;;5057343;28;20060;-44
2021/06/24 13:00:39;;;;;;;5.47;4.60;;;21.90;91.10;;;;;;5046524;28;20040;-42
2021/06/24 13:03:07;;;;;;;4.82;3.40;;;21.90;91.10;;;;;;5058266;28;20441;-44
2021/06/24 13:05:34;;;;;;;8.48;4.78;;;21.90;91.40;;;;;;5029999;28;20395;-42
2021/06/24 13:08:09;;;;;;;5.35;4.32;;;21.90;91.40;;;;;;5052143;28;20567;-41
2021/06/24 13:11:11;;;;;;;4.07;3.50;;;21.80;91.40;;;;;;5046976;28;20033;-42
2021/06/24 13:13:36;;;;;;;4.88;3.60;;;21.80;91.60;;;;;;5035340;28;20241;-43